Time;durP1;ratioP1;P1;durP2;ratioP2;P2;SDS_P1;SDS_P2;PMS_P1;PMS_P2;Temp;Humidity;BMP_temperature;BMP_pressure;BME280_temperature;BME280_humidity;BME280_pressure;Samples;Min_cycle;Max_cycle;Signal;HPM_P1;HPM_P2
2023/05/11 00:00:31;;;;;;;8.97;6.00;;;;;;;10.74;86.29;95379.59;4959184;28;20728;-80
2023/05/11 00:02:56;;;;;;;9.33;6.30;;;;;;;10.81;86.13;95382.25;4949800;28;20258;-82
2023/05/11 00:05:22;;;;;;;9.43;6.00;;;;;;;10.83;86.28;95385.47;4973208;28;20745;-79
2023/05/11 00:07:47;;;;;;;10.67;5.70;;;;;;;10.88;86.14;95377.06;4981420;28;20240;-80
2023/05/11 00:10:13;;;;;;;9.53;6.20;;;;;;;10.93;86.11;95383.34;4955128;28;20240;-80
2023/05/11 00:12:38;;;;;;;8.97;6.00;;;;;;;10.81;86.17;95390.09;4959390;28;20227;-80
2023/05/11 00:15:05;;;;;;;8.07;6.20;;;;;;;10.84;86.51;95384.50;4974006;28;20243;-79
2023/05/11 00:17:30;;;;;;;8.53;5.77;;;;;;;10.78;86.09;95380.81;4982928;28;20267;-80
2023/05/11 00:19:55;;;;;;;8.80;6.10;;;;;;;10.68;86.85;95379.50;4951488;28;20232;-80
2023/05/11 00:22:21;;;;;;;11.13;5.80;;;;;;;10.64;86.66;95381.72;4970757;28;20298;-79
2023/05/11 00:24:46;;;;;;;9.63;5.40;;;;;;;10.65;86.18;95379.91;4963901;28;20224;-79
2023/05/11 00:27:12;;;;;;;8.70;5.50;;;;;;;10.34;86.74;95389.88;4974272;28;20224;-79
2023/05/11 00:29:37;;;;;;;9.27;5.50;;;;;;;10.37;86.46;95387.69;4959064;28;20258;-80
2023/05/11 00:32:03;;;;;;;8.47;5.50;;;;;;;10.26;86.50;95380.34;4967963;28;20237;-81
2023/05/11 00:34:28;;;;;;;7.57;5.37;;;;;;;10.25;86.65;95389.16;4972705;28;20232;-80
2023/05/11 00:36:54;;;;;;;9.70;5.17;;;;;;;10.35;86.68;95381.00;4974728;28;21014;-80
2023/05/11 00:39:19;;;;;;;9.03;5.43;;;;;;;10.23;86.50;95379.88;4956736;28;20624;-80
2023/05/11 00:41:44;;;;;;;11.17;5.23;;;;;;;10.21;86.88;95381.88;4955357;28;20313;-79
2023/05/11 00:44:10;;;;;;;8.87;4.90;;;;;;;10.32;85.77;95389.25;4971974;28;20293;-79
2023/05/11 00:46:36;;;;;;;8.87;5.30;;;;;;;10.27;86.77;95386.38;4955312;28;20797;-79
2023/05/11 00:49:02;;;;;;;8.60;5.30;;;;;;;10.22;85.77;95389.56;4954320;28;20671;-79
2023/05/11 00:51:27;;;;;;;8.63;5.30;;;;;;;10.25;85.94;95383.94;4950284;28;20768;-80
2023/05/11 00:53:53;;;;;;;10.97;5.30;;;;;;;10.22;86.54;95389.56;4940430;28;20235;-80
2023/05/11 00:56:19;;;;;;;10.50;5.50;;;;;;;10.34;85.84;95385.44;4974320;28;20659;-80
2023/05/11 00:58:44;;;;;;;8.90;5.47;;;;;;;10.32;85.63;95386.66;4965148;28;20224;-80
2023/05/11 01:01:10;;;;;;;11.27;5.80;;;;;;;10.41;85.22;95388.91;4952694;28;20228;-79
2023/05/11 01:03:35;;;;;;;11.33;5.53;;;;;;;10.11;85.20;95387.38;4976889;28;20239;-79
2023/05/11 01:06:10;;;;;;;7.00;5.30;;;;;;;10.32;85.61;95384.81;4972714;28;20250;-79
2023/05/11 01:08:41;;;;;;;9.83;5.47;;;;;;;10.36;85.07;95388.69;4970550;28;20301;-81
2023/05/11 01:11:39;;;;;;;7.40;5.43;;;;;;;10.47;84.84;95377.72;4945926;28;20251;-80
2023/05/11 01:14:11;;;;;;;9.27;5.50;;;;;;;10.29;84.70;95385.22;4945952;28;20252;-80
2023/05/11 01:16:38;;;;;;;9.23;5.90;;;;;;;10.22;85.08;95383.50;4961896;28;20240;-79
2023/05/11 01:19:17;;;;;;;7.53;5.60;;;;;;;10.30;85.17;95389.44;4973447;28;20236;-79
2023/05/11 01:21:42;;;;;;;8.07;5.37;;;;;;;10.40;85.02;95386.50;4966497;28;20232;-80
2023/05/11 01:24:12;;;;;;;10.33;5.30;;;;;;;10.25;84.71;95389.16;4971692;28;20239;-81
2023/05/11 01:27:16;;;;;;;7.90;5.40;;;;;;;10.28;84.19;95388.81;4977640;28;20231;-81
2023/05/11 01:29:59;;;;;;;7.80;5.20;;;;;;;10.43;82.92;95386.94;4982711;28;20232;-80
2023/05/11 01:32:26;;;;;;;8.67;5.00;;;;;;;10.47;82.93;95388.19;4963526;28;20239;-81
2023/05/11 01:35:04;;;;;;;8.77;5.50;;;;;;;10.29;83.82;95385.22;4983184;28;20242;-80
2023/05/11 01:37:30;;;;;;;9.40;5.50;;;;;;;10.33;83.66;95386.44;4970350;28;20232;-81
2023/05/11 01:40:02;;;;;;;9.50;5.87;;;;;;;10.41;83.71;95388.91;4972654;28;20236;-81
2023/05/11 01:42:31;;;;;;;8.60;5.87;;;;;;;10.40;83.26;95389.94;4977270;28;20328;-81
2023/05/11 01:44:56;;;;;;;8.90;5.33;;;;;;;10.45;83.75;95389.38;4961451;28;20702;-80
2023/05/11 01:47:22;;;;;;;10.93;5.63;;;;;;;10.45;83.76;95384.97;4970999;28;20294;-81
2023/05/11 01:49:48;;;;;;;8.97;5.60;;;;;;;10.40;83.90;95392.56;4969912;28;20329;-81
2023/05/11 01:52:13;;;;;;;7.60;5.30;;;;;;;10.50;83.93;95397.47;4955116;28;20236;-79
2023/05/11 01:54:39;;;;;;;9.03;5.80;;;;;;;10.40;84.26;95395.16;4953702;28;20243;-79
2023/05/11 01:57:05;;;;;;;9.57;5.40;;;;;;;10.19;84.17;95403.00;4961024;28;20728;-80
2023/05/11 01:59:30;;;;;;;9.17;5.90;;;;;;;10.27;85.40;95399.47;4938158;28;20266;-80
2023/05/11 02:01:56;;;;;;;8.67;5.80;;;;;;;10.40;84.54;95395.16;4976903;28;20239;-79
2023/05/11 02:04:21;;;;;;;9.23;5.63;;;;;;;10.34;83.53;95397.72;4971096;28;20231;-79
2023/05/11 02:06:47;;;;;;;10.33;5.80;;;;;;;10.20;83.90;95396.75;4956887;28;20233;-80
2023/05/11 02:09:15;;;;;;;10.40;5.80;;;;;;;10.27;83.61;95397.63;4960897;28;20254;-80
2023/05/11 02:11:41;;;;;;;10.03;5.80;;;;;;;10.37;83.77;95392.91;4958421;28;20746;-80
2023/05/11 02:14:07;;;;;;;7.93;5.40;;;;;;;10.15;84.06;95388.66;4982821;28;20244;-81
2023/05/11 02:16:32;;;;;;;9.27;5.77;;;;;;;10.22;84.57;95394.78;4973240;28;20243;-80
2023/05/11 02:18:58;;;;;;;11.13;6.10;;;;;;;10.01;84.62;95394.72;4960817;28;20242;-81
2023/05/11 02:21:24;;;;;;;9.03;6.57;;;;;;;9.95;84.53;95393.66;4960640;28;20243;-80
2023/05/11 02:23:50;;;;;;;10.83;6.50;;;;;;;9.84;85.76;95391.50;4943614;28;20231;-81
2023/05/11 02:26:15;;;;;;;11.27;6.83;;;;;;;9.91;85.34;95383.75;4961382;28;20307;-81
2023/05/11 02:28:41;;;;;;;12.40;6.60;;;;;;;9.85;85.64;95387.91;4959557;28;20320;-80
2023/05/11 02:31:09;;;;;;;9.60;5.70;;;;;;;9.73;84.85;95378.91;4969878;28;20238;-79
2023/05/11 02:33:35;;;;;;;8.17;6.03;;;;;;;9.66;86.54;95382.44;4960149;28;20331;-81
2023/05/11 02:36:01;;;;;;;12.47;6.10;;;;;;;9.74;85.88;95391.00;4959768;28;20306;-79
2023/05/11 02:38:31;;;;;;;9.97;5.73;;;;;;;9.89;85.59;95394.38;4958067;28;20667;-79
2023/05/11 02:40:59;;;;;;;9.73;5.73;;;;;;;9.76;86.50;95388.19;4960614;28;20224;-80
2023/05/11 02:43:28;;;;;;;8.53;5.30;;;;;;;9.67;86.02;95392.72;4961014;28;21061;-81
2023/05/11 02:45:57;;;;;;;10.27;5.80;;;;;;;9.72;86.34;95385.13;4961435;28;20298;-80
2023/05/11 02:48:25;;;;;;;9.70;5.70;;;;;;;9.60;86.60;95388.41;4959285;28;20655;-79
2023/05/11 02:50:51;;;;;;;8.80;6.13;;;;;;;9.60;86.62;95391.00;4961461;28;20227;-81
2023/05/11 02:53:17;;;;;;;8.30;6.10;;;;;;;9.58;86.93;95380.72;4947022;28;20234;-80
2023/05/11 02:55:42;;;;;;;8.97;6.03;;;;;;;9.62;87.26;95387.22;4959857;28;20216;-80
2023/05/11 02:58:07;;;;;;;9.83;6.20;;;;;;;9.59;86.50;95378.94;4959600;28;20270;-81
2023/05/11 03:00:33;;;;;;;10.07;6.57;;;;;;;9.54;87.27;95376.88;4957511;28;20652;-82
2023/05/11 03:02:59;;;;;;;11.30;6.17;;;;;;;9.51;87.38;95374.59;4982567;28;20227;-80
2023/05/11 03:05:24;;;;;;;12.10;6.53;;;;;;;9.80;86.51;95381.59;4974752;28;20378;-79
2023/05/11 03:07:51;;;;;;;11.77;6.13;;;;;;;9.58;86.13;95379.94;4967961;28;20227;-80
2023/05/11 03:10:16;;;;;;;9.63;5.93;;;;;;;9.58;87.35;95374.72;4968037;28;20318;-82
2023/05/11 03:12:42;;;;;;;9.07;6.00;;;;;;;9.56;87.07;95371.44;4983741;28;20235;-82
2023/05/11 03:15:10;;;;;;;11.17;6.27;;;;;;;9.58;87.40;95372.09;4983278;28;20231;-81
2023/05/11 03:17:36;;;;;;;9.20;6.07;;;;;;;9.61;87.05;95375.13;4956242;28;20231;-80
2023/05/11 03:20:02;;;;;;;8.87;5.97;;;;;;;9.59;86.70;95378.94;4956110;28;20235;-80
2023/05/11 03:22:28;;;;;;;11.37;6.30;;;;;;;9.61;87.32;95384.78;4965053;28;20224;-80
2023/05/11 03:24:53;;;;;;;10.27;6.37;;;;;;;9.67;87.19;95382.28;4965799;28;20231;-81
2023/05/11 03:27:19;;;;;;;9.80;6.37;;;;;;;9.86;87.11;95391.34;4971562;28;20239;-80
2023/05/11 03:29:45;;;;;;;10.33;6.43;;;;;;;9.86;86.89;95386.09;4956924;28;20243;-81
2023/05/11 03:32:11;;;;;;;10.83;6.87;;;;;;;9.87;87.05;95390.31;4955900;28;20788;-79
2023/05/11 03:34:36;;;;;;;11.40;6.67;;;;;;;9.76;85.58;95388.19;4946109;28;20236;-79
2023/05/11 03:37:03;;;;;;;11.37;6.73;;;;;;;9.64;87.08;95387.84;4965974;28;20705;-79
2023/05/11 03:39:30;;;;;;;10.00;6.70;;;;;;;9.56;87.97;95398.38;4962593;28;20246;-80
2023/05/11 03:41:55;;;;;;;12.13;7.00;;;;;;;9.74;87.18;95390.19;4945356;28;20236;-79
2023/05/11 03:44:21;;;;;;;10.30;6.87;;;;;;;9.91;86.91;95394.22;4941466;28;20240;-78
2023/05/11 03:46:46;;;;;;;9.47;6.70;;;;;;;9.71;87.62;95385.31;4983665;28;20223;-80
2023/05/11 03:49:12;;;;;;;10.03;7.13;;;;;;;9.88;87.18;95391.97;4967233;28;20254;-81
2023/05/11 03:51:37;;;;;;;10.63;7.07;;;;;;;9.76;86.35;95396.03;4983170;28;20627;-81
2023/05/11 03:54:04;;;;;;;10.57;6.93;;;;;;;9.85;87.07;95398.38;4986479;28;20231;-80
2023/05/11 03:56:30;;;;;;;12.90;7.17;;;;;;;9.73;87.59;95399.81;4942996;28;20223;-79
2023/05/11 03:58:55;;;;;;;13.00;7.73;;;;;;;9.69;87.88;95402.97;4959432;28;20255;-80
2023/05/11 04:01:21;;;;;;;12.67;7.53;;;;;;;9.45;88.82;95409.31;4967762;28;20247;-81
2023/05/11 04:03:50;;;;;;;12.47;7.60;;;;;;;9.50;88.74;95407.75;4947079;28;20238;-80
2023/05/11 04:06:16;;;;;;;14.93;7.43;;;;;;;9.64;88.82;95413.16;4951610;28;20781;-79
2023/05/11 04:08:42;;;;;;;12.20;8.27;;;;;;;9.60;88.98;95412.69;4977233;28;20246;-80
2023/05/11 04:11:08;;;;;;;13.53;8.50;;;;;;;9.65;88.69;95402.53;4981362;28;20242;-80
2023/05/11 04:13:33;;;;;;;14.67;8.17;;;;;;;9.37;89.67;95412.81;4958074;28;20244;-80
2023/05/11 04:15:58;;;;;;;11.53;7.67;;;;;;;9.32;89.86;95412.53;4983275;28;20220;-81
2023/05/11 04:18:24;;;;;;;12.67;8.80;;;;;;;9.64;90.13;95411.38;4970909;28;20240;-80
2023/05/11 04:20:49;;;;;;;14.00;8.70;;;;;;;9.60;89.54;95414.53;4976901;28;20668;-79
2023/05/11 04:23:15;;;;;;;15.93;9.37;;;;;;;9.38;90.25;95406.63;4974149;28;20316;-81
2023/05/11 04:25:40;;;;;;;15.50;9.63;;;;;;;9.43;90.70;95409.47;4957907;28;20233;-78
2023/05/11 04:28:06;;;;;;;13.30;8.87;;;;;;;9.33;90.66;95414.16;4940289;28;20236;-80
2023/05/11 04:30:31;;;;;;;15.47;9.40;;;;;;;9.28;91.29;95411.28;4953015;28;20322;-81
2023/05/11 04:32:57;;;;;;;14.73;9.60;;;;;;;9.49;91.33;95415.78;4968438;28;20228;-79
2023/05/11 04:35:23;;;;;;;15.23;9.63;;;;;;;9.33;91.38;95419.41;4974265;28;20223;-81
2023/05/11 04:37:49;;;;;;;16.57;10.00;;;;;;;9.38;91.58;95426.69;4973943;28;20905;-81
2023/05/11 04:40:15;;;;;;;14.10;10.07;;;;;;;9.33;91.90;95423.81;4952308;28;20236;-77
2023/05/11 04:42:40;;;;;;;16.53;9.70;;;;;;;9.53;91.54;95424.09;4970129;28;20230;-80
2023/05/11 04:45:06;;;;;;;19.27;11.43;;;;;;;9.73;90.72;95433.78;4955990;28;20262;-81
2023/05/11 04:47:32;;;;;;;16.90;10.43;;;;;;;9.53;91.41;95419.66;4956544;28;20322;-82
2023/05/11 04:49:57;;;;;;;18.10;10.30;;;;;;;9.23;92.26;95424.06;4958152;28;20243;-81
2023/05/11 04:52:23;;;;;;;18.30;11.37;;;;;;;9.40;92.11;95415.06;4981176;28;20235;-79
2023/05/11 04:54:48;;;;;;;16.07;10.73;;;;;;;9.44;91.95;95426.78;4954974;28;20231;-80
2023/05/11 04:57:13;;;;;;;17.87;10.80;;;;;;;9.33;91.88;95419.41;4958958;28;20235;-78
2023/05/11 04:59:39;;;;;;;14.87;10.53;;;;;;;9.24;92.45;95423.06;4973766;28;20251;-72
2023/05/11 05:02:04;;;;;;;17.57;10.57;;;;;;;9.48;92.45;95435.88;4963960;28;20354;-74
2023/05/11 05:04:30;;;;;;;16.50;10.77;;;;;;;9.37;92.14;95425.88;4974506;28;20235;-73
2023/05/11 05:06:55;;;;;;;15.53;10.50;;;;;;;9.35;92.37;95429.66;4950771;28;20211;-73
2023/05/11 05:09:21;;;;;;;18.23;11.43;;;;;;;9.47;92.69;95430.84;4958825;28;20247;-73
2023/05/11 05:11:46;;;;;;;19.23;11.47;;;;;;;9.45;92.64;95433.63;4961334;28;20704;-73
2023/05/11 05:14:12;;;;;;;19.77;11.43;;;;;;;9.52;91.48;95436.34;4980712;28;20291;-72
2023/05/11 05:16:37;;;;;;;17.00;10.87;;;;;;;9.46;91.85;95442.25;4951367;28;21036;-73
2023/05/11 05:19:03;;;;;;;21.33;12.20;;;;;;;9.57;91.92;95446.25;4958886;28;20239;-74
2023/05/11 05:21:28;;;;;;;21.10;12.43;;;;;;;9.72;91.79;95439.22;4975636;28;20243;-74
2023/05/11 05:23:54;;;;;;;18.67;11.93;;;;;;;9.67;91.83;95446.78;4972170;28;20231;-73
2023/05/11 05:26:20;;;;;;;18.37;11.47;;;;;;;9.58;92.27;95446.06;4937446;28;20366;-73
2023/05/11 05:28:46;;;;;;;18.90;12.33;;;;;;;9.47;92.63;95446.50;4975966;28;20443;-73
2023/05/11 05:31:11;;;;;;;19.20;12.90;;;;;;;9.67;92.43;95445.00;4954289;28;20669;-73
2023/05/11 05:33:37;;;;;;;17.37;11.87;;;;;;;9.76;91.53;95451.75;4956175;28;20247;-73
2023/05/11 05:36:02;;;;;;;21.77;12.40;;;;;;;9.60;91.68;95453.72;4945954;28;20242;-72
2023/05/11 05:38:28;;;;;;;20.77;12.70;;;;;;;9.74;91.54;95443.28;4972024;28;20255;-74
2023/05/11 05:40:56;;;;;;;21.27;12.87;;;;;;;9.61;91.49;95450.09;4955000;28;20250;-74
2023/05/11 05:43:22;;;;;;;21.90;12.73;;;;;;;9.67;91.76;95458.06;4953824;28;20244;-73
2023/05/11 05:45:47;;;;;;;27.23;14.30;;;;;;;9.87;91.73;95455.69;4969677;28;20654;-72
2023/05/11 05:48:13;;;;;;;21.33;13.37;;;;;;;9.80;90.75;95457.41;4963838;28;20244;-72
2023/05/11 05:50:38;;;;;;;20.53;13.27;;;;;;;9.69;91.15;95457.88;4954663;28;20930;-74
2023/05/11 05:53:04;;;;;;;22.47;13.00;;;;;;;9.62;92.17;95456.97;4975966;28;20713;-73
2023/05/11 05:55:29;;;;;;;21.63;13.67;;;;;;;9.78;90.94;95467.22;4971115;28;20719;-75
2023/05/11 05:57:55;;;;;;;21.73;13.50;;;;;;;9.76;91.69;95466.59;4969681;28;20243;-74
2023/05/11 06:00:20;;;;;;;21.37;13.07;;;;;;;9.79;91.51;95463.63;4961157;28;20612;-73
2023/05/11 06:02:46;;;;;;;19.40;12.50;;;;;;;9.64;91.76;95468.06;4955553;28;20250;-73
2023/05/11 06:05:11;;;;;;;19.67;12.00;;;;;;;9.65;91.28;95467.06;4969807;28;20236;-75
2023/05/11 06:07:37;;;;;;;18.63;11.67;;;;;;;9.64;91.35;95470.66;4980458;28;20228;-74
2023/05/11 06:10:03;;;;;;;20.40;11.90;;;;;;;9.64;92.07;95468.88;4972834;28;20339;-74
2023/05/11 06:12:29;;;;;;;17.93;10.67;;;;;;;9.61;91.15;95469.22;4982676;28;20253;-74
2023/05/11 06:14:54;;;;;;;20.00;11.80;;;;;;;9.68;91.70;95464.91;4974955;28;20219;-73
2023/05/11 06:17:20;;;;;;;20.60;12.07;;;;;;;9.73;90.89;95473.00;4967233;28;20244;-73
2023/05/11 06:19:46;;;;;;;18.83;11.10;;;;;;;9.68;91.54;95472.72;4993147;28;20235;-73
2023/05/11 06:22:11;;;;;;;18.20;11.60;;;;;;;9.86;91.27;95480.22;5006980;28;20939;-74
2023/05/11 06:24:37;;;;;;;17.57;10.80;;;;;;;9.58;91.19;95477.41;4977917;28;20242;-73
2023/05/11 06:27:02;;;;;;;21.80;11.67;;;;;;;9.74;91.50;95484.28;5002672;28;20234;-74
2023/05/11 06:29:27;;;;;;;18.40;10.90;;;;;;;9.78;91.03;95482.91;5001782;28;20245;-74
2023/05/11 06:31:54;;;;;;;17.87;11.20;;;;;;;9.77;90.90;95484.72;5010519;28;20306;-74
2023/05/11 06:34:20;;;;;;;19.30;11.47;;;;;;;9.74;90.93;95486.91;4979201;28;20242;-74
2023/05/11 06:36:49;;;;;;;17.30;10.93;;;;;;;9.90;89.97;95489.31;4964272;28;20837;-74
2023/05/11 06:39:15;;;;;;;24.73;11.87;;;;;;;9.97;90.13;95491.03;4976795;28;20230;-74
2023/05/11 06:41:40;;;;;;;21.10;11.40;;;;;;;9.81;90.04;95495.63;4986391;28;20707;-72
2023/05/11 06:44:06;;;;;;;18.50;11.00;;;;;;;9.83;90.25;95491.03;4971225;28;20726;-73
2023/05/11 06:46:31;;;;;;;23.53;11.73;;;;;;;9.95;90.09;95497.44;4976637;28;20330;-73
2023/05/11 06:48:57;;;;;;;19.07;11.33;;;;;;;9.98;89.54;95497.88;4963348;28;20238;-72
2023/05/11 06:51:22;;;;;;;18.07;11.20;;;;;;;9.76;89.86;95490.94;4981831;28;20618;-74
2023/05/11 06:53:48;;;;;;;20.77;11.37;;;;;;;9.99;89.99;95493.44;4991795;28;20223;-72
2023/05/11 06:56:14;;;;;;;19.23;11.47;;;;;;;10.12;88.96;95494.47;5007033;28;20226;-73
2023/05/11 06:58:39;;;;;;;21.63;10.33;;;;;;;9.87;88.64;95484.44;5015838;28;20624;-73
2023/05/11 07:01:06;;;;;;;18.73;10.83;;;;;;;10.02;88.96;95488.69;5015442;28;20253;-72
2023/05/11 07:03:35;;;;;;;15.27;10.43;;;;;;;10.12;88.37;95491.06;5013222;28;20341;-73
2023/05/11 07:06:01;;;;;;;16.43;9.80;;;;;;;10.17;87.86;95491.31;4967338;28;20770;-74
2023/05/11 07:08:26;;;;;;;14.30;8.30;;;;;;;10.03;87.50;95489.50;4980127;28;20250;-73
2023/05/11 07:10:52;;;;;;;16.10;8.40;;;;;;;10.19;87.02;95493.75;4967648;28;20230;-74
2023/05/11 07:13:17;;;;;;;13.93;8.27;;;;;;;10.18;87.06;95484.25;4992734;28;20255;-74
2023/05/11 07:15:43;;;;;;;15.13;9.20;;;;;;;10.35;86.74;95485.66;4992008;28;20231;-73
2023/05/11 07:18:08;;;;;;;12.73;8.03;;;;;;;10.35;86.71;95489.09;4987619;28;20238;-72
2023/05/11 07:20:38;;;;;;;13.80;8.60;;;;;;;10.55;87.03;95491.94;4976162;28;20890;-72
2023/05/11 07:23:04;;;;;;;14.13;8.03;;;;;;;10.57;85.46;95496.00;4990094;28;20262;-73
2023/05/11 07:25:29;;;;;;;13.07;7.27;;;;;;;10.61;85.02;95484.16;4996503;28;20295;-73
2023/05/11 07:27:55;;;;;;;14.87;8.30;;;;;;;10.87;85.40;95488.06;5010810;28;21036;-73
2023/05/11 07:30:21;;;;;;;12.50;7.40;;;;;;;10.96;83.86;95492.16;4994999;28;20230;-73
2023/05/11 07:32:46;;;;;;;10.10;7.30;;;;;;;10.91;83.13;95492.72;5012246;28;20238;-73
2023/05/11 07:35:13;;;;;;;10.97;7.20;;;;;;;10.92;82.33;95491.72;4998138;28;20634;-73
2023/05/11 07:37:39;;;;;;;11.70;7.07;;;;;;;11.04;81.90;95484.97;5003629;28;20242;-74
2023/05/11 07:40:06;;;;;;;9.00;6.43;;;;;;;11.07;81.06;95491.66;5005515;28;20235;-74
2023/05/11 07:42:31;;;;;;;10.93;7.23;;;;;;;11.33;80.85;95489.25;4977110;28;20226;-74
2023/05/11 07:44:57;;;;;;;10.87;6.90;;;;;;;11.39;81.22;95489.28;4991634;28;20348;-74
2023/05/11 07:47:23;;;;;;;16.17;8.50;;;;;;;11.58;80.91;95490.47;5005016;28;20313;-74
2023/05/11 07:49:49;;;;;;;15.87;10.03;;;;;;;11.61;80.16;95484.81;5005608;28;20226;-71
2023/05/11 07:52:15;;;;;;;15.80;10.10;;;;;;;11.65;80.67;95493.94;4959212;28;20729;-73
2023/05/11 07:54:40;;;;;;;13.10;9.40;;;;;;;11.80;80.32;95493.81;4980513;28;20237;-73
2023/05/11 07:57:06;;;;;;;14.37;9.97;;;;;;;11.84;78.79;95492.47;5000380;28;20734;-73
2023/05/11 07:59:32;;;;;;;15.67;9.33;;;;;;;11.87;78.95;95502.56;4965197;28;20292;-73
2023/05/11 08:01:57;;;;;;;15.83;9.63;;;;;;;11.97;79.03;95497.75;5016378;28;20230;-73
2023/05/11 08:04:23;;;;;;;15.57;9.43;;;;;;;12.04;78.38;95498.59;4996844;28;20253;-73
2023/05/11 08:06:48;;;;;;;14.40;9.60;;;;;;;12.13;79.06;95498.25;4987435;28;20319;-72
2023/05/11 08:09:14;;;;;;;18.57;10.60;;;;;;;12.32;79.26;95485.44;4994818;28;20243;-72
2023/05/11 08:11:40;;;;;;;16.33;9.30;;;;;;;12.20;78.04;95498.31;4984045;28;20254;-73
2023/05/11 08:14:06;;;;;;;12.03;6.90;;;;;;;12.33;76.66;95492.28;4988499;28;20325;-73
2023/05/11 08:16:32;;;;;;;9.63;5.90;;;;;;;12.15;76.41;95491.03;4969020;28;20730;-72
2023/05/11 08:18:57;;;;;;;12.27;8.23;;;;;;;12.02;77.26;95493.56;4980639;28;20819;-72
2023/05/11 08:21:23;;;;;;;15.33;9.40;;;;;;;12.47;78.42;95491.31;4981577;28;20960;-73
2023/05/11 08:23:48;;;;;;;11.20;8.00;;;;;;;12.66;75.97;95486.13;5016289;28;20312;-73
2023/05/11 08:26:13;;;;;;;11.57;7.97;;;;;;;12.59;75.63;95493.19;4989940;28;20649;-73
2023/05/11 08:28:39;;;;;;;13.77;8.47;;;;;;;12.76;75.54;95488.38;4983023;28;20303;-73
2023/05/11 08:31:05;;;;;;;10.57;6.03;;;;;;;12.79;75.46;95483.56;5004646;28;20308;-74
2023/05/11 08:33:30;;;;;;;7.97;5.30;;;;;;;12.68;76.34;95486.75;4983547;28;20628;-73
2023/05/11 08:35:56;;;;;;;7.50;5.10;;;;;;;12.58;75.74;95490.78;4981175;28;20233;-73
2023/05/11 08:38:21;;;;;;;9.10;5.53;;;;;;;12.91;75.27;95491.66;4964857;28;20234;-72
2023/05/11 08:40:47;;;;;;;7.47;5.40;;;;;;;13.11;73.84;95500.41;4989648;28;20240;-73
2023/05/11 08:43:16;;;;;;;10.93;5.87;;;;;;;13.16;74.13;95497.19;4984462;28;20238;-73
2023/05/11 08:45:46;;;;;;;12.27;5.37;;;;;;;13.12;73.62;95499.41;4986435;28;21145;-74
2023/05/11 08:48:14;;;;;;;8.30;5.10;;;;;;;13.02;74.61;95501.56;4985423;28;20238;-74
2023/05/11 08:50:40;;;;;;;7.87;5.13;;;;;;;12.69;73.87;95493.63;4976434;28;20234;-73
2023/05/11 08:53:06;;;;;;;7.90;5.00;;;;;;;12.70;75.63;95499.69;5011552;28;20234;-72
2023/05/11 08:55:31;;;;;;;9.27;5.73;;;;;;;13.07;75.36;95488.69;4976817;28;20245;-73
2023/05/11 08:57:57;;;;;;;10.40;5.33;;;;;;;12.90;72.92;95490.03;4981828;28;20257;-74
2023/05/11 09:00:23;;;;;;;7.17;5.10;;;;;;;12.99;74.75;95483.56;4997146;28;20234;-73
2023/05/11 09:02:48;;;;;;;8.43;5.07;;;;;;;12.65;74.54;95489.78;4980138;28;20325;-74
2023/05/11 09:05:14;;;;;;;9.47;4.97;;;;;;;12.61;76.24;95491.16;4999829;28;20222;-73
2023/05/11 09:07:40;;;;;;;6.63;4.97;;;;;;;12.63;76.89;95483.91;4981977;28;21620;-73
2023/05/11 09:10:07;;;;;;;6.70;4.80;;;;;;;12.55;76.21;95480.66;4988744;28;20308;-74
2023/05/11 09:12:32;;;;;;;10.00;5.20;;;;;;;12.97;75.51;95482.97;4963792;28;20235;-73
2023/05/11 09:14:58;;;;;;;10.10;5.40;;;;;;;13.01;74.50;95484.19;5005698;28;20225;-71
2023/05/11 09:17:26;;;;;;;8.53;4.87;;;;;;;12.49;76.09;95476.22;5001937;28;20234;-73
2023/05/11 09:20:04;;;;;;;6.10;4.60;;;;;;;12.23;77.71;95482.16;4996097;28;20219;-74
2023/05/11 09:22:32;;;;;;;6.80;4.40;;;;;;;12.20;79.37;95481.75;5003158;28;20223;-73
2023/05/11 09:24:58;;;;;;;11.67;5.33;;;;;;;12.67;77.69;95479.06;4978948;28;20257;-73
2023/05/11 09:27:24;;;;;;;7.90;5.10;;;;;;;12.93;76.74;95478.31;4979545;28;20235;-72
2023/05/11 09:29:51;;;;;;;8.60;5.00;;;;;;;13.05;76.31;95490.66;4988276;28;20272;-72
2023/05/11 09:32:17;;;;;;;8.77;5.40;;;;;;;13.05;76.87;95482.78;4978431;28;20233;-72
2023/05/11 09:34:42;;;;;;;11.20;5.00;;;;;;;13.03;76.77;95479.56;5000154;28;20222;-74
2023/05/11 09:37:16;;;;;;;7.93;4.80;;;;;;;12.71;75.96;95490.78;4964208;28;20304;-73
2023/05/11 09:39:41;;;;;;;8.27;5.00;;;;;;;12.51;78.65;95480.25;4985966;28;20237;-74
2023/05/11 09:42:14;;;;;;;7.60;5.07;;;;;;;12.76;77.30;95485.75;4984113;28;20709;-73
2023/05/11 09:44:42;;;;;;;10.00;5.50;;;;;;;12.98;77.29;95492.47;4998738;28;20234;-73
2023/05/11 09:47:15;;;;;;;7.13;5.13;;;;;;;13.05;76.37;95487.22;4983015;28;20682;-73
2023/05/11 09:49:42;;;;;;;9.00;5.10;;;;;;;12.72;77.59;95489.81;4970643;28;20321;-75
2023/05/11 09:52:11;;;;;;;8.07;5.20;;;;;;;12.80;78.24;95476.50;4992300;28;20626;-73
2023/05/11 09:54:46;;;;;;;8.13;5.20;;;;;;;13.19;76.73;95473.94;4981502;28;20312;-73
2023/05/11 09:57:45;;;;;;;8.83;5.13;;;;;;;12.82;76.45;95472.63;4982056;28;20233;-72
2023/05/11 10:00:14;;;;;;;7.60;5.20;;;;;;;13.28;76.19;95458.75;4931086;28;20653;-73
2023/05/11 10:02:39;;;;;;;10.80;4.80;;;;;;;13.44;75.92;95463.63;4968760;28;20246;-73
2023/05/11 10:05:14;;;;;;;10.37;4.53;;;;;;;13.20;75.36;95464.22;4995168;28;20223;-73
2023/05/11 10:07:39;;;;;;;6.33;4.50;;;;;;;13.22;76.61;95462.19;4966421;28;20710;-73
2023/05/11 10:10:06;;;;;;;10.03;5.30;;;;;;;13.24;76.81;95458.38;4990322;28;20222;-72
2023/05/11 10:12:32;;;;;;;14.70;5.33;;;;;;;13.12;75.38;95459.97;4979932;28;20222;-72
2023/05/11 10:15:03;;;;;;;9.80;5.00;;;;;;;13.22;75.93;95447.25;4987534;28;20230;-74
2023/05/11 10:17:29;;;;;;;7.23;5.03;;;;;;;13.11;75.61;95460.19;5002609;28;20226;-73
2023/05/11 10:19:55;;;;;;;8.63;4.80;;;;;;;13.15;74.43;95446.44;5003444;28;20269;-73
2023/05/11 10:22:21;;;;;;;7.67;4.80;;;;;;;13.18;75.18;95447.84;4979267;28;20223;-73
2023/05/11 10:24:47;;;;;;;8.83;5.10;;;;;;;13.21;75.87;95452.69;4968632;28;20896;-73
2023/05/11 10:27:12;;;;;;;6.00;4.43;;;;;;;12.96;74.90;95447.22;5008321;28;20605;-73
2023/05/11 10:29:38;;;;;;;7.97;4.80;;;;;;;13.05;74.12;95451.25;4982909;28;20231;-74
2023/05/11 10:32:04;;;;;;;10.23;5.10;;;;;;;13.34;75.74;95434.28;4990156;28;20250;-74
2023/05/11 10:34:29;;;;;;;7.30;5.03;;;;;;;13.74;75.21;95435.84;4982521;28;20234;-72
2023/05/11 10:36:56;;;;;;;8.43;4.67;;;;;;;13.91;72.71;95436.19;4974616;28;20226;-74
2023/05/11 10:39:21;;;;;;;7.33;4.60;;;;;;;14.07;72.99;95431.28;4984021;28;20240;-73
2023/05/11 10:42:15;;;;;;;6.70;4.80;;;;;;;14.17;73.61;95436.09;4990389;28;20226;-73
2023/05/11 10:45:06;;;;;;;7.50;4.53;;;;;;;13.91;71.53;95428.31;5007339;28;20313;-73
2023/05/11 10:48:13;;;;;;;7.00;4.40;;;;;;;13.99;71.60;95428.09;4989945;28;20241;-73
2023/05/11 10:51:06;;;;;;;8.13;4.40;;;;;;;14.31;71.81;95429.78;5013229;28;20309;-73
2023/05/11 10:53:58;;;;;;;7.47;4.60;;;;;;;14.12;71.74;95435.91;4997641;28;20253;-73
2023/05/11 10:56:41;;;;;;;8.13;4.83;;;;;;;14.56;71.22;95435.97;5012895;28;20625;-74
2023/05/11 10:59:43;;;;;;;9.73;4.20;;;;;;;14.82;71.76;95429.72;5011780;28;20238;-73
2023/05/11 11:02:09;;;;;;;8.93;4.10;;;;;;;14.47;70.48;95428.53;4983342;28;21048;-73
2023/05/11 11:05:04;;;;;;;8.40;4.60;;;;;;;14.44;72.18;95426.31;4982473;28;20242;-73
2023/05/11 11:07:50;;;;;;;8.70;4.60;;;;;;;14.03;71.19;95431.91;4997711;28;20261;-72
2023/05/11 11:10:27;;;;;;;6.43;4.47;;;;;;;14.11;72.74;95426.44;5002530;28;20234;-73
2023/05/11 11:13:07;;;;;;;8.97;4.40;;;;;;;14.03;71.99;95426.66;5007809;28;20234;-72
2023/05/11 11:15:54;;;;;;;9.73;4.50;;;;;;;14.31;72.83;95432.44;4989458;28;20320;-73
2023/05/11 11:18:30;;;;;;;6.87;4.40;;;;;;;14.15;71.98;95422.34;5013383;28;20247;-74
2023/05/11 11:20:56;;;;;;;7.37;4.60;;;;;;;14.21;72.17;95421.50;4982088;28;20253;-72
2023/05/11 11:23:50;;;;;;;5.50;4.07;;;;;;;14.12;72.91;95415.69;4982283;28;20245;-74
2023/05/11 11:26:18;;;;;;;7.77;4.50;;;;;;;14.24;71.83;95413.19;4987047;28;20313;-75
2023/05/11 11:28:52;;;;;;;6.37;4.13;;;;;;;14.33;71.16;95426.97;4980637;28;20238;-72
2023/05/11 11:31:30;;;;;;;6.10;4.30;;;;;;;14.00;71.10;95419.16;5007096;28;20244;-73